createdAt,value
2019-05-20T00:00:57.782Z,997.77
2019-05-20T00:01:57.805Z,997.76
2019-05-20T00:02:57.829Z,997.80
2019-05-20T00:03:57.856Z,997.78
2019-05-20T00:04:57.896Z,997.80
2019-05-20T00:05:57.937Z,997.79
2019-05-20T00:06:57.939Z,997.81
2019-05-20T00:07:57.969Z,997.77
2019-05-20T00:08:58.021Z,997.75
2019-05-20T00:09:58.026Z,997.76
2019-05-20T00:10:58.050Z,997.76
2019-05-20T00:11:58.077Z,997.73
2019-05-20T00:12:58.106Z,997.71
2019-05-20T00:13:58.137Z,997.75
2019-05-20T00:14:58.162Z,997.74
2019-05-20T00:15:58.192Z,997.74
2019-05-20T00:16:58.223Z,997.71
2019-05-20T00:17:58.254Z,997.72
2019-05-20T00:18:58.272Z,997.70
2019-05-20T00:19:58.351Z,997.73
2019-05-20T00:20:58.324Z,997.72
2019-05-20T00:21:58.354Z,997.67
2019-05-20T00:22:58.381Z,997.70
2019-05-20T00:23:58.407Z,997.69
2019-05-20T00:24:58.441Z,997.71
2019-05-20T00:25:58.464Z,997.70
2019-05-20T00:26:58.489Z,997.70
2019-05-20T00:27:58.522Z,997.67
2019-05-20T00:28:58.548Z,997.74
2019-05-20T00:29:58.599Z,997.73
2019-05-20T00:30:58.599Z,997.71
2019-05-20T00:31:58.629Z,997.68
2019-05-20T00:32:58.660Z,997.72
2019-05-20T00:33:58.680Z,997.70
2019-05-20T00:34:58.715Z,997.73
2019-05-20T00:35:58.738Z,997.72
2019-05-20T00:36:58.763Z,997.70
2019-05-20T00:37:58.793Z,997.68
2019-05-20T00:38:58.843Z,997.68
2019-05-20T00:39:58.846Z,997.67
2019-05-20T00:40:58.882Z,997.66
2019-05-20T00:41:58.903Z,997.66
2019-05-20T00:42:58.942Z,997.66
2019-05-20T00:43:58.959Z,997.65
2019-05-20T00:44:58.985Z,997.67
2019-05-20T00:45:59.011Z,997.63
2019-05-20T00:46:59.040Z,997.68
2019-05-20T00:47:59.074Z,997.66
2019-05-20T00:48:59.097Z,997.62
2019-05-20T00:49:59.119Z,997.63
2019-05-20T00:50:59.149Z,997.59
2019-05-20T00:51:59.182Z,997.56
2019-05-20T00:52:59.209Z,997.58
2019-05-20T00:53:59.236Z,997.53
2019-05-20T00:54:59.258Z,997.57
2019-05-20T00:55:59.285Z,997.59
2019-05-20T00:56:59.335Z,997.56
2019-05-20T00:57:59.355Z,997.57
2019-05-20T00:58:59.367Z,997.58
2019-05-20T00:59:59.392Z,997.55
2019-05-20T01:00:59.423Z,997.61
2019-05-20T01:01:59.450Z,997.56
2019-05-20T01:02:59.477Z,997.57
2019-05-20T01:03:59.510Z,997.58
2019-05-20T01:04:59.536Z,997.51
2019-05-20T01:05:59.556Z,997.52
2019-05-20T01:06:59.586Z,997.54
2019-05-20T01:07:59.821Z,997.54
2019-05-20T01:08:59.642Z,997.56
2019-05-20T01:09:59.681Z,997.56
2019-05-20T01:10:59.693Z,997.58
2019-05-20T01:11:59.722Z,997.58
2019-05-20T01:12:59.755Z,997.60
2019-05-20T01:13:59.774Z,997.58
2019-05-20T01:14:59.801Z,997.57
2019-05-20T01:15:59.829Z,997.56
2019-05-20T01:16:59.859Z,997.58
2019-05-20T01:17:59.893Z,997.59
2019-05-20T01:18:59.912Z,997.61
2019-05-20T01:19:59.939Z,997.58
2019-05-20T01:20:59.967Z,997.60
2019-05-20T01:21:59.999Z,997.60
2019-05-20T01:23:00.019Z,997.61
2019-05-20T01:24:00.049Z,997.59
2019-05-20T01:25:00.084Z,997.58
2019-05-20T01:26:00.103Z,997.66
2019-05-20T01:27:00.141Z,997.64
2019-05-20T01:28:00.163Z,997.61
2019-05-20T01:29:00.184Z,997.62
2019-05-20T01:30:00.216Z,997.65
2019-05-20T01:31:00.249Z,997.70
2019-05-20T01:32:00.267Z,997.70
2019-05-20T01:33:12.697Z,997.71
2019-05-20T01:34:00.326Z,997.78
2019-05-20T01:35:00.360Z,997.81
2019-05-20T01:36:00.375Z,997.81
2019-05-20T01:37:00.404Z,997.82
2019-05-20T01:38:00.432Z,997.81
2019-05-20T01:39:00.462Z,997.79
2019-05-20T01:40:00.487Z,997.76
2019-05-20T01:41:00.522Z,997.77
2019-05-20T01:42:00.542Z,997.71
2019-05-20T01:43:00.568Z,997.80
2019-05-20T01:44:00.595Z,997.77
2019-05-20T01:45:00.623Z,997.79
2019-05-20T01:46:00.654Z,997.74
2019-05-20T01:47:00.675Z,997.78
2019-05-20T01:48:00.703Z,997.80
2019-05-20T01:49:00.735Z,997.78
2019-05-20T01:50:00.758Z,997.80
2019-05-20T01:51:00.791Z,997.84
2019-05-20T01:52:00.810Z,997.85
2019-05-20T01:53:00.840Z,997.83
2019-05-20T01:54:00.867Z,997.85
2019-05-20T01:55:00.894Z,997.91
2019-05-20T01:56:00.984Z,997.88
2019-05-20T01:57:00.950Z,997.93
2019-05-20T01:58:00.980Z,997.88
2019-05-20T01:59:01.003Z,997.92
2019-05-20T02:00:01.027Z,997.91
2019-05-20T02:01:01.053Z,997.91
2019-05-20T02:02:01.084Z,997.91
2019-05-20T02:03:01.109Z,997.91
2019-05-20T02:04:01.137Z,997.97
2019-05-20T02:05:01.163Z,997.96
2019-05-20T02:06:01.204Z,997.96
2019-05-20T02:07:01.219Z,997.99
2019-05-20T02:08:43.793Z,997.92
2019-05-20T02:09:43.822Z,997.92
2019-05-20T02:10:43.848Z,997.95
2019-05-20T02:11:43.873Z,997.98
2019-05-20T02:12:43.910Z,997.93
2019-05-20T02:13:43.928Z,997.94
2019-05-20T02:14:43.959Z,997.95
2019-05-20T02:15:43.983Z,997.95
2019-05-20T02:16:44.011Z,997.96
2019-05-20T02:17:44.037Z,997.98
2019-05-20T02:18:44.073Z,997.94
2019-05-20T02:19:44.093Z,997.96
2019-05-20T02:20:44.120Z,997.98
2019-05-20T02:21:44.152Z,997.98
2019-05-20T02:22:44.173Z,998.00
2019-05-20T02:23:44.201Z,997.93
2019-05-20T02:24:44.229Z,997.96
2019-05-20T02:25:46.688Z,997.94
2019-05-20T02:26:44.283Z,997.94
2019-05-20T02:27:44.309Z,997.89
2019-05-20T02:28:44.340Z,997.89
2019-05-20T02:29:44.372Z,997.89
2019-05-20T02:30:44.395Z,997.87
2019-05-20T02:31:44.420Z,997.90
2019-05-20T02:32:44.455Z,997.83
2019-05-20T02:33:51.636Z,997.81
2019-05-20T02:34:44.500Z,997.85
2019-05-20T02:35:44.525Z,997.86
2019-05-20T02:36:44.564Z,997.85
2019-05-20T02:37:44.583Z,997.89
2019-05-20T02:38:44.609Z,997.90
2019-05-20T02:39:44.709Z,997.84
2019-05-20T02:40:44.679Z,997.85
2019-05-20T02:41:44.691Z,997.86
2019-05-20T02:42:44.727Z,997.80
2019-05-20T02:43:44.745Z,997.82
2019-05-20T02:44:44.779Z,997.74
2019-05-20T02:45:44.798Z,997.75
2019-05-20T02:46:44.827Z,997.73
2019-05-20T02:47:44.851Z,997.71
2019-05-20T02:48:44.883Z,997.67
2019-05-20T02:49:44.910Z,997.67
2019-05-20T02:50:44.935Z,997.72
2019-05-20T02:51:44.960Z,997.69
2019-05-20T02:52:44.994Z,997.70
2019-05-20T02:53:45.017Z,997.68
2019-05-20T02:54:45.050Z,997.74
2019-05-20T02:55:45.067Z,997.76
2019-05-20T02:56:45.095Z,997.80
2019-05-20T02:58:32.688Z,997.84
2019-05-20T02:59:32.719Z,997.85
2019-05-20T03:00:32.737Z,997.86
2019-05-20T03:01:32.770Z,997.89
2019-05-20T03:02:32.799Z,997.89
2019-05-20T03:03:32.834Z,997.87
2019-05-20T03:04:32.848Z,997.83
2019-05-20T03:05:32.872Z,997.84
2019-05-20T03:06:32.903Z,997.92
2019-05-20T03:07:32.929Z,997.89
2019-05-20T03:08:32.962Z,997.85
2019-05-20T03:09:32.982Z,997.93
2019-05-20T03:10:33.009Z,997.92
2019-05-20T03:11:33.035Z,997.96
2019-05-20T03:12:33.061Z,997.97
2019-05-20T03:13:33.091Z,997.98
2019-05-20T03:14:35.740Z,998.02
2019-05-20T03:15:33.144Z,998.01
2019-05-20T03:16:33.172Z,997.99
2019-05-20T03:17:33.197Z,997.99
2019-05-20T03:18:33.227Z,998.04
2019-05-20T03:19:33.273Z,998.01
2019-05-20T03:20:33.276Z,998.06
2019-05-20T03:21:33.307Z,998.08
2019-05-20T03:22:33.338Z,998.12
2019-05-20T03:23:33.366Z,998.10
2019-05-20T03:24:33.387Z,998.10
2019-05-20T03:25:33.410Z,998.12
2019-05-20T03:26:33.449Z,998.15
2019-05-20T03:27:33.467Z,998.06
2019-05-20T03:28:33.491Z,998.05
2019-05-20T03:29:33.567Z,998.08
2019-05-20T03:30:33.548Z,998.07
2019-05-20T03:31:33.575Z,998.09
2019-05-20T03:32:33.604Z,998.07
2019-05-20T03:33:33.631Z,998.04
2019-05-20T03:34:58.699Z,998.08
2019-05-20T03:35:33.684Z,998.08
2019-05-20T03:36:33.707Z,998.11
2019-05-20T03:37:33.733Z,998.08
2019-05-20T03:38:33.760Z,998.04
2019-05-20T03:39:33.787Z,998.06
2019-05-20T03:40:33.818Z,998.05
2019-05-20T03:41:33.845Z,998.04
2019-05-20T03:42:33.872Z,998.03
2019-05-20T03:43:33.901Z,998.04
2019-05-20T03:44:37.360Z,998.05
2019-05-20T03:45:33.950Z,998.10
2019-05-20T03:46:33.976Z,998.08
2019-05-20T03:47:34.006Z,998.12
2019-05-20T03:48:34.045Z,998.14
2019-05-20T03:49:34.056Z,998.19
2019-05-20T03:50:34.098Z,998.19
2019-05-20T03:51:34.112Z,998.15
2019-05-20T03:52:34.136Z,998.19
2019-05-20T03:53:34.169Z,998.19
2019-05-20T03:54:34.191Z,998.23
2019-05-20T03:55:34.231Z,998.21
2019-05-20T03:56:34.244Z,998.22
2019-05-20T03:57:34.274Z,998.24
2019-05-20T03:58:34.307Z,998.24
2019-05-20T03:59:34.342Z,998.25
2019-05-20T04:00:34.351Z,998.26
2019-05-20T04:01:34.380Z,998.26
2019-05-20T04:02:34.407Z,998.24
2019-05-20T04:03:34.485Z,998.21
2019-05-20T04:04:34.457Z,998.25
2019-05-20T04:05:34.486Z,998.24
2019-05-20T04:06:34.512Z,998.24
2019-05-20T04:07:34.545Z,998.30
2019-05-20T04:08:34.567Z,998.28
2019-05-20T04:09:34.594Z,998.33
2019-05-20T04:10:34.623Z,998.32
2019-05-20T04:11:34.650Z,998.34
2019-05-20T04:12:34.674Z,998.34
2019-05-20T04:13:35.112Z,998.43
2019-05-20T04:14:35.151Z,998.42
2019-05-20T04:15:34.754Z,998.36
2019-05-20T04:16:34.781Z,998.41
2019-05-20T04:17:34.815Z,998.39
2019-05-20T04:18:34.839Z,998.39
2019-05-20T04:19:34.861Z,998.41
2019-05-20T04:20:34.886Z,998.42
2019-05-20T04:21:34.915Z,998.41
2019-05-20T04:22:34.949Z,998.41
2019-05-20T04:23:35.129Z,998.45
2019-05-20T04:24:35.044Z,998.46
2019-05-20T04:25:35.020Z,998.43
2019-05-20T04:26:35.053Z,998.47
2019-05-20T04:27:35.081Z,998.49
2019-05-20T04:28:35.103Z,998.50
2019-05-20T04:29:35.134Z,998.48
2019-05-20T04:30:35.154Z,998.52
2019-05-20T04:31:35.182Z,998.52
2019-05-20T04:32:35.209Z,998.49
2019-05-20T04:33:35.241Z,998.51
2019-05-20T04:34:35.270Z,998.48
2019-05-20T04:35:35.287Z,998.47
2019-05-20T04:36:35.319Z,998.46
2019-05-20T04:37:35.356Z,998.48
2019-05-20T04:38:35.375Z,998.40
2019-05-20T04:39:35.713Z,998.43
2019-05-20T04:40:35.431Z,998.38
2019-05-20T04:41:35.969Z,998.38
2019-05-20T04:42:35.482Z,998.40
2019-05-20T04:43:35.505Z,998.41
2019-05-20T04:44:35.540Z,998.32
2019-05-20T04:46:35.597Z,998.28
2019-05-20T04:47:35.611Z,998.27
2019-05-20T04:48:35.653Z,998.26
2019-05-20T04:49:35.680Z,998.23
2019-05-20T04:50:36.011Z,998.26
2019-05-20T04:52:35.747Z,998.22
2019-05-20T04:53:36.090Z,998.25
2019-05-20T04:54:35.798Z,998.27
2019-05-20T04:55:35.836Z,998.30
2019-05-20T04:56:35.850Z,998.30
2019-05-20T04:57:35.879Z,998.33
2019-05-20T04:58:35.904Z,998.38
2019-05-20T04:59:35.950Z,998.41
2019-05-20T05:00:35.966Z,998.46
2019-05-20T05:01:36.191Z,998.50
2019-05-20T05:02:36.014Z,998.54
2019-05-20T05:03:36.042Z,998.53
2019-05-20T05:04:36.081Z,998.54
2019-05-20T05:05:37.924Z,998.55
2019-05-20T05:07:36.147Z,998.61
2019-05-20T05:08:36.186Z,998.59
2019-05-20T05:09:36.214Z,998.59
2019-05-20T05:10:36.251Z,998.60
2019-05-20T05:11:36.255Z,998.60
2019-05-20T05:12:36.343Z,998.59
2019-05-20T05:13:36.354Z,998.58
2019-05-20T05:14:36.353Z,998.63
2019-05-20T05:15:36.385Z,998.60
2019-05-20T05:17:36.431Z,998.61
2019-05-20T05:18:36.441Z,998.61
2019-05-20T05:19:36.487Z,998.59
2019-05-20T05:20:36.529Z,998.55
2019-05-20T05:21:36.531Z,998.58
2019-05-20T05:22:36.766Z,998.59
2019-05-20T05:23:36.580Z,998.59
2019-05-20T05:24:36.607Z,998.59
2019-05-20T05:25:36.633Z,998.59
2019-05-20T05:26:36.660Z,998.62
2019-05-20T05:27:36.719Z,998.65
2019-05-20T05:28:36.730Z,998.62
2019-05-20T05:29:36.750Z,998.59
2019-05-20T05:30:36.766Z,998.58
2019-05-20T05:31:36.811Z,998.63
2019-05-20T05:32:36.828Z,998.61
2019-05-20T05:33:36.864Z,998.57
2019-05-20T05:34:36.881Z,998.64
2019-05-20T05:35:52.010Z,998.68
2019-05-20T05:36:36.951Z,998.65
2019-05-20T05:37:36.972Z,998.65
2019-05-20T05:39:37.215Z,998.65
2019-05-20T05:40:37.053Z,998.65
2019-05-20T05:41:37.064Z,998.64
2019-05-20T05:42:37.200Z,998.61
2019-05-20T05:43:37.356Z,998.63
2019-05-20T05:44:37.221Z,998.62
2019-05-20T05:45:37.494Z,998.64
2019-05-20T05:46:37.445Z,998.61
2019-05-20T05:47:37.234Z,998.63
2019-05-20T05:48:37.257Z,998.67
2019-05-20T05:49:37.298Z,998.64
2019-05-20T05:50:37.323Z,998.67
2019-05-20T05:51:37.356Z,998.69
2019-05-20T05:52:37.378Z,998.68
2019-05-20T05:53:37.403Z,998.67
2019-05-20T05:54:37.636Z,998.75
2019-05-20T05:55:37.469Z,998.76
2019-05-20T05:56:37.789Z,998.70
2019-05-20T05:57:37.708Z,998.71
2019-05-20T05:58:37.548Z,998.72
2019-05-20T05:59:37.592Z,998.72
2019-05-20T06:00:37.595Z,998.75
2019-05-20T06:02:37.646Z,998.72
2019-05-20T06:03:37.663Z,998.73
2019-05-20T06:04:37.691Z,998.75
2019-05-20T06:06:37.751Z,998.67
2019-05-20T06:07:37.775Z,998.68
2019-05-20T06:08:37.799Z,998.68
2019-05-20T06:09:37.844Z,998.69
2019-05-20T06:10:37.864Z,998.73
2019-05-20T06:11:37.893Z,998.70
2019-05-20T06:12:37.916Z,998.67
2019-05-20T06:13:37.939Z,998.68
2019-05-20T06:14:37.965Z,998.68
2019-05-20T06:15:37.991Z,998.71
2019-05-20T06:16:38.221Z,998.71
2019-05-20T06:17:38.061Z,998.75
2019-05-20T06:18:38.073Z,998.71
2019-05-20T06:19:38.307Z,998.69
2019-05-20T06:20:38.140Z,998.75
2019-05-20T06:21:38.172Z,998.77
2019-05-20T06:22:38.181Z,998.74
2019-05-20T06:23:38.244Z,998.77
2019-05-20T06:24:38.238Z,998.75
2019-05-20T06:25:38.264Z,998.79
2019-05-20T06:26:38.615Z,998.76
2019-05-20T06:28:38.361Z,998.76
2019-05-20T06:29:38.414Z,998.80
2019-05-20T06:30:38.404Z,998.80
2019-05-20T06:31:38.431Z,998.83
2019-05-20T06:32:38.455Z,998.87
2019-05-20T06:33:38.697Z,998.91
2019-05-20T06:34:38.517Z,998.88
2019-05-20T06:35:38.754Z,998.86
2019-05-20T06:36:38.883Z,998.91
2019-05-20T06:37:38.613Z,998.86
2019-05-20T06:38:38.627Z,998.94
2019-05-20T06:39:38.647Z,998.89
2019-05-20T06:40:38.879Z,998.91
2019-05-20T06:41:38.911Z,998.92
2019-05-20T06:42:38.813Z,998.90
2019-05-20T06:43:38.906Z,998.91
2019-05-20T06:44:51.716Z,998.93
2019-05-20T06:45:38.814Z,998.92
2019-05-20T06:46:38.840Z,998.93
2019-05-20T06:47:39.182Z,998.89
2019-05-20T06:48:38.892Z,998.90
2019-05-20T06:49:38.922Z,998.95
2019-05-20T06:50:38.954Z,998.93
2019-05-20T06:51:38.986Z,998.92
2019-05-20T06:52:39.019Z,998.95
2019-05-20T06:53:39.037Z,998.99
2019-05-20T06:54:39.092Z,999.08
2019-05-20T06:55:39.093Z,999.03
2019-05-20T06:56:39.143Z,999.10
2019-05-20T06:57:39.150Z,999.04
2019-05-20T06:58:39.174Z,999.07
2019-05-20T06:59:39.203Z,999.05
2019-05-20T07:00:39.223Z,999.00
2019-05-20T07:01:39.277Z,999.00
2019-05-20T07:02:39.277Z,999.00
2019-05-20T07:03:39.511Z,999.04
2019-05-20T07:04:39.332Z,999.00
2019-05-20T07:05:39.370Z,999.07
2019-05-20T07:06:46.850Z,999.10
2019-05-20T07:07:39.415Z,999.09
2019-05-20T07:08:39.439Z,999.07
2019-05-20T07:09:39.483Z,999.14
2019-05-20T07:10:39.518Z,999.13
2019-05-20T07:11:39.540Z,999.15
2019-05-20T07:12:41.591Z,999.15
2019-05-20T07:13:39.595Z,999.12
2019-05-20T07:14:39.605Z,999.21
2019-05-20T07:15:39.639Z,999.18
2019-05-20T07:16:39.668Z,999.24
2019-05-20T07:17:39.713Z,999.28
2019-05-20T07:18:39.919Z,999.25
2019-05-20T07:19:39.743Z,999.29
2019-05-20T07:20:39.787Z,999.31
2019-05-20T07:21:39.798Z,999.30
2019-05-20T07:22:54.513Z,999.34
2019-05-20T07:23:39.853Z,999.37
2019-05-20T07:24:39.879Z,999.35
2019-05-20T07:25:39.911Z,999.37
2019-05-20T07:26:39.935Z,999.39
2019-05-20T07:27:39.997Z,999.34
2019-05-20T07:28:40.005Z,999.40
2019-05-20T07:29:40.025Z,999.35
2019-05-20T07:30:40.059Z,999.38
2019-05-20T07:31:40.077Z,999.36
2019-05-20T07:32:40.100Z,999.34
2019-05-20T07:33:40.127Z,999.32
2019-05-20T07:34:40.159Z,999.37
2019-05-20T07:35:40.181Z,999.35
2019-05-20T07:37:40.261Z,999.30
2019-05-20T07:38:40.263Z,999.32
2019-05-20T07:39:40.294Z,999.31
2019-05-20T07:40:40.335Z,999.25
2019-05-20T07:41:41.549Z,999.25
2019-05-20T07:42:40.377Z,999.28
2019-05-20T07:43:40.429Z,999.21
2019-05-20T07:44:40.439Z,999.25
2019-05-20T07:45:40.456Z,999.23
2019-05-20T07:46:40.490Z,999.29
2019-05-20T07:47:40.521Z,999.29
2019-05-20T07:48:40.634Z,999.29
2019-05-20T07:49:40.574Z,999.29
2019-05-20T07:50:40.605Z,999.31
2019-05-20T07:51:40.639Z,999.30
2019-05-20T07:52:40.659Z,999.26
2019-05-20T07:53:40.687Z,999.28
2019-05-20T07:54:40.727Z,999.31
2019-05-20T07:55:40.737Z,999.31
2019-05-20T07:56:40.768Z,999.27
2019-05-20T07:57:40.792Z,999.23
2019-05-20T07:58:40.832Z,999.25
2019-05-20T07:59:40.859Z,999.22
2019-05-20T08:00:40.877Z,999.25
2019-05-20T08:01:40.901Z,999.27
2019-05-20T08:02:41.262Z,999.27
2019-05-20T08:03:40.983Z,999.24
2019-05-20T08:04:41.027Z,999.32
2019-05-20T08:05:41.031Z,999.34
2019-05-20T08:06:41.260Z,999.32
2019-05-20T08:07:51.871Z,999.35
2019-05-20T08:08:41.315Z,999.36
2019-05-20T08:09:45.928Z,999.37
2019-05-20T08:10:41.355Z,999.32
2019-05-20T08:11:41.176Z,999.38
2019-05-20T08:12:41.409Z,999.36
2019-05-20T08:13:41.243Z,999.36
2019-05-20T08:14:41.474Z,999.39
2019-05-20T08:16:41.326Z,999.38
2019-05-20T08:17:41.341Z,999.38
2019-05-20T08:18:41.376Z,999.35
2019-05-20T08:19:41.417Z,999.40
2019-05-20T08:20:41.435Z,999.41
2019-05-20T08:21:41.477Z,999.44
2019-05-20T08:22:41.811Z,999.41
2019-05-20T08:23:41.529Z,999.43
2019-05-20T08:24:41.549Z,999.47
2019-05-20T08:25:41.582Z,999.49
2019-05-20T08:26:41.624Z,999.51
2019-05-20T08:27:41.637Z,999.54
2019-05-20T08:28:41.653Z,999.49
2019-05-20T08:29:41.685Z,999.50
2019-05-20T08:30:41.718Z,999.55
2019-05-20T08:31:41.746Z,999.54
2019-05-20T08:32:41.777Z,999.53
2019-05-20T08:33:41.801Z,999.54
2019-05-20T08:34:41.812Z,999.53
2019-05-20T08:35:41.852Z,999.51
2019-05-20T08:36:41.883Z,999.51
2019-05-20T08:37:45.687Z,999.54
2019-05-20T08:38:41.925Z,999.57
2019-05-20T08:39:41.966Z,999.56
2019-05-20T08:40:41.988Z,999.57
2019-05-20T08:41:42.028Z,999.60
2019-05-20T08:42:42.053Z,999.58
2019-05-20T08:43:42.063Z,999.55
2019-05-20T08:44:42.413Z,999.59
2019-05-20T08:45:42.125Z,999.59
2019-05-20T08:46:42.162Z,999.60
2019-05-20T08:47:42.178Z,999.56
2019-05-20T08:48:42.459Z,999.62
2019-05-20T08:49:42.794Z,999.56
2019-05-20T08:50:42.270Z,999.59
2019-05-20T08:51:42.311Z,999.59
2019-05-20T08:52:42.314Z,999.63
2019-05-20T08:53:42.369Z,999.60
2019-05-20T08:54:42.385Z,999.62
2019-05-20T08:55:42.407Z,999.62
2019-05-20T08:56:42.646Z,999.61
2019-05-20T08:57:42.459Z,999.62
2019-05-20T08:58:42.497Z,999.61
2019-05-20T08:59:42.519Z,999.57
2019-05-20T09:00:42.744Z,999.59
2019-05-20T09:01:42.566Z,999.61
2019-05-20T09:02:42.596Z,999.57
2019-05-20T09:03:42.643Z,999.51
2019-05-20T09:04:42.654Z,999.52
2019-05-20T09:05:42.679Z,999.47
2019-05-20T09:06:42.720Z,999.50
2019-05-20T09:07:42.741Z,999.51
2019-05-20T09:08:42.762Z,999.53
2019-05-20T09:09:42.809Z,999.50
2019-05-20T09:10:42.841Z,999.49
2019-05-20T09:11:42.851Z,999.56
2019-05-20T09:12:43.085Z,999.53
2019-05-20T09:13:42.910Z,999.53
2019-05-20T09:14:42.934Z,999.50
2019-05-20T09:15:45.386Z,999.54
2019-05-20T09:16:42.994Z,999.57
2019-05-20T09:17:43.029Z,999.56
2019-05-20T09:18:43.060Z,999.58
2019-05-20T09:19:46.745Z,999.52
2019-05-20T09:20:43.175Z,999.57
2019-05-20T09:21:43.150Z,999.52
2019-05-20T09:22:43.161Z,999.53
2019-05-20T09:23:43.190Z,999.48
2019-05-20T09:24:43.295Z,999.47
2019-05-20T09:25:43.246Z,999.48
2019-05-20T09:26:43.278Z,999.52
2019-05-20T09:27:43.303Z,999.46
2019-05-20T09:28:43.331Z,999.43
2019-05-20T09:29:43.365Z,999.44
2019-05-20T09:30:43.403Z,999.44
2019-05-20T09:31:43.425Z,999.46
2019-05-20T09:32:43.496Z,999.44
2019-05-20T09:33:43.745Z,999.45
2019-05-20T09:34:43.507Z,999.51
2019-05-20T09:35:43.864Z,999.52
2019-05-20T09:36:43.568Z,999.47
2019-05-20T09:37:43.788Z,999.51
2019-05-20T09:39:43.642Z,999.50
2019-05-20T09:40:43.786Z,999.50
2019-05-20T09:41:43.712Z,999.52
2019-05-20T09:42:43.814Z,999.54
2019-05-20T09:43:43.779Z,999.49
2019-05-20T09:44:43.791Z,999.49
2019-05-20T09:45:43.838Z,999.53
2019-05-20T09:46:43.869Z,999.55
2019-05-20T09:47:43.888Z,999.52
2019-05-20T09:48:43.914Z,999.54
2019-05-20T09:49:43.930Z,999.52
2019-05-20T09:50:43.969Z,999.53
2019-05-20T09:51:43.997Z,999.55
2019-05-20T09:52:44.016Z,999.59
2019-05-20T09:53:44.047Z,999.58
2019-05-20T09:54:45.616Z,999.56
2019-05-20T09:56:44.129Z,999.63
2019-05-20T09:57:44.161Z,999.66
2019-05-20T09:59:09.860Z,999.66
2019-05-20T09:59:44.215Z,999.66
2019-05-20T10:00:44.267Z,999.66
2019-05-20T10:01:44.292Z,999.63
2019-05-20T10:02:44.303Z,999.68
2019-05-20T10:03:44.347Z,999.58
2019-05-20T10:04:44.358Z,999.59
2019-05-20T10:05:44.412Z,999.56
2019-05-20T10:06:44.428Z,999.61
2019-05-20T10:07:44.444Z,999.61
2019-05-20T10:08:45.389Z,999.70
2019-05-20T10:09:44.518Z,999.67
2019-05-20T10:10:44.547Z,999.71
2019-05-20T10:11:44.596Z,999.69
2019-05-20T10:12:46.867Z,999.71
2019-05-20T10:13:44.617Z,999.69
2019-05-20T10:14:44.656Z,999.71
2019-05-20T10:15:44.881Z,999.70
2019-05-20T10:16:44.713Z,999.73
2019-05-20T10:17:44.743Z,999.77
2019-05-20T10:18:44.980Z,999.76
2019-05-20T10:19:44.800Z,999.77
2019-05-20T10:20:44.825Z,999.80
2019-05-20T10:22:44.882Z,999.82
2019-05-20T10:23:44.906Z,999.80
2019-05-20T10:24:44.941Z,999.81
2019-05-20T10:25:44.976Z,999.83
2019-05-20T10:26:44.995Z,999.83
2019-05-20T10:27:45.038Z,999.85
2019-05-20T10:28:47.453Z,999.88
2019-05-20T10:29:45.077Z,999.86
2019-05-20T10:30:45.112Z,999.83
2019-05-20T10:31:45.462Z,999.85
2019-05-20T10:32:45.172Z,999.87
2019-05-20T10:33:45.194Z,999.84
2019-05-20T10:34:45.244Z,999.83
2019-05-20T10:35:45.254Z,999.80
2019-05-20T10:36:45.299Z,999.75
2019-05-20T10:37:45.329Z,999.72
2019-05-20T10:38:57.986Z,999.69
2019-05-20T10:39:45.377Z,999.70
2019-05-20T10:40:45.415Z,999.74
2019-05-20T10:41:45.427Z,999.71
2019-05-20T10:42:45.476Z,999.71
2019-05-20T10:43:45.485Z,999.70
2019-05-20T10:44:45.514Z,999.65
2019-05-20T10:45:45.546Z,999.73
2019-05-20T10:46:45.584Z,999.66
2019-05-20T10:47:45.612Z,999.74
2019-05-20T10:48:45.639Z,999.75
2019-05-20T10:49:45.665Z,999.77
2019-05-20T10:50:45.698Z,999.77
2019-05-20T10:51:45.734Z,999.76
2019-05-20T10:52:45.751Z,999.80
2019-05-20T10:53:45.822Z,999.80
2019-05-20T10:54:45.799Z,999.77
2019-05-20T10:55:45.839Z,999.82
2019-05-20T10:56:46.079Z,999.84
2019-05-20T10:57:45.889Z,999.87
2019-05-20T10:58:45.930Z,999.89
2019-05-20T10:59:45.958Z,999.92
2019-05-20T11:01:01.739Z,999.85
2019-05-20T11:01:46.007Z,999.89
2019-05-20T11:03:46.092Z,999.89
2019-05-20T11:04:46.160Z,999.90
2019-05-20T11:05:46.446Z,999.86
2019-05-20T11:06:46.163Z,999.87
2019-05-20T11:08:46.230Z,999.95
2019-05-20T11:09:46.252Z,999.90
2019-05-20T11:10:46.276Z,999.95
2019-05-20T11:11:46.296Z,999.90
2019-05-20T11:12:46.639Z,999.92
2019-05-20T11:13:46.347Z,999.91
2019-05-20T11:14:46.478Z,999.91
2019-05-20T11:15:46.604Z,999.92
2019-05-20T11:16:46.756Z,999.91
2019-05-20T11:17:46.460Z,999.91
2019-05-20T11:18:46.491Z,999.92
2019-05-20T11:19:46.535Z,999.93
2019-05-20T11:20:46.605Z,999.91
2019-05-20T11:21:46.587Z,1000.00
2019-05-20T11:22:46.600Z,999.92
2019-05-20T11:23:46.642Z,999.93
2019-05-20T11:24:46.686Z,999.98
2019-05-20T11:25:46.887Z,999.97
2019-05-20T11:26:46.736Z,999.92
2019-05-20T11:27:46.784Z,1000.00
2019-05-20T11:28:46.771Z,1000.01
2019-05-20T11:29:46.809Z,999.95
2019-05-20T11:30:46.831Z,999.96
2019-05-20T11:31:46.883Z,999.93
2019-05-20T11:32:46.889Z,999.95
2019-05-20T11:33:46.916Z,999.99
2019-05-20T11:34:46.977Z,999.94
2019-05-20T11:35:46.987Z,1000.02
2019-05-20T11:36:47.025Z,999.95
2019-05-20T11:37:47.032Z,999.93
2019-05-20T11:38:47.068Z,999.92
2019-05-20T11:39:47.120Z,999.92
2019-05-20T11:40:47.433Z,999.90
2019-05-20T11:41:53.351Z,999.90
2019-05-20T11:42:47.174Z,999.90
2019-05-20T11:43:47.219Z,999.92
2019-05-20T11:44:47.308Z,999.89
2019-05-20T11:45:47.271Z,999.93
2019-05-20T11:46:47.499Z,999.92
2019-05-20T11:47:47.316Z,999.92
2019-05-20T11:48:47.350Z,999.96
2019-05-20T11:49:47.375Z,999.95
2019-05-20T11:50:47.402Z,999.98
2019-05-20T11:51:47.548Z,1000.02
2019-05-20T11:52:47.465Z,1000.02
2019-05-20T11:53:47.490Z,1000.02
2019-05-20T11:54:47.862Z,1000.04
2019-05-20T11:55:47.553Z,1000.02
2019-05-20T11:57:33.566Z,1000.03
2019-05-20T11:58:32.774Z,1000.01
2019-05-20T12:00:15.358Z,1000.02
2019-05-20T12:01:12.761Z,1000.04
2019-05-20T12:02:12.791Z,999.98
2019-05-20T12:03:12.818Z,1000.01
2019-05-20T12:04:12.856Z,999.99
2019-05-20T12:05:12.880Z,1000.03
2019-05-20T12:06:13.252Z,1000.01
2019-05-20T12:07:12.934Z,1000.01
2019-05-20T12:08:12.982Z,999.96
2019-05-20T12:09:12.989Z,999.96
2019-05-20T12:10:13.027Z,999.97
2019-05-20T12:11:13.049Z,999.95
2019-05-20T12:12:13.081Z,999.92
2019-05-20T12:13:13.105Z,999.92
2019-05-20T12:14:13.143Z,999.93
2019-05-20T12:15:13.164Z,999.89
2019-05-20T12:16:13.193Z,999.88
2019-05-20T12:17:13.223Z,999.91
2019-05-20T12:18:13.252Z,999.86
2019-05-20T12:19:13.279Z,999.85
2019-05-20T12:20:13.314Z,999.83
2019-05-20T12:21:13.343Z,999.83
2019-05-20T12:22:13.364Z,999.79
2019-05-20T12:23:13.396Z,999.87
2019-05-20T12:24:13.422Z,999.85
2019-05-20T12:25:13.460Z,999.83
2019-05-20T12:26:13.482Z,999.90
2019-05-20T12:27:13.508Z,999.87
2019-05-20T12:28:13.546Z,999.84
2019-05-20T12:29:13.570Z,999.88
2019-05-20T12:30:13.620Z,999.83
2019-05-20T12:31:13.635Z,999.86
2019-05-20T12:32:13.657Z,999.84
2019-05-20T12:33:19.079Z,999.83
2019-05-20T12:34:13.713Z,999.79
2019-05-20T12:35:13.769Z,999.80
2019-05-20T12:36:13.977Z,999.79
2019-05-20T12:37:13.796Z,999.78
2019-05-20T12:38:13.825Z,999.79
2019-05-20T12:39:13.860Z,999.84
2019-05-20T12:40:13.882Z,999.82
2019-05-20T12:41:13.911Z,999.80
2019-05-20T12:42:14.073Z,999.83
2019-05-20T12:43:13.976Z,999.80
2019-05-20T12:44:14.000Z,999.80
2019-05-20T12:45:14.029Z,999.77
2019-05-20T12:46:14.064Z,999.75